sensor_id;sensor_type;location;lat;lon;timestamp;temperature;humidity
40952;DHT22;26682;51.660;19.338;2022-10-18T00:01:31;13.80;99.90
40952;DHT22;26682;51.660;19.338;2022-10-18T00:03:18;13.80;99.90
40952;DHT22;26682;51.660;19.338;2022-10-18T00:05:05;13.80;99.90
40952;DHT22;26682;51.660;19.338;2022-10-18T00:06:51;13.70;99.90
40952;DHT22;26682;51.660;19.338;2022-10-18T00:08:37;13.70;99.90
40952;DHT22;26682;51.660;19.338;2022-10-18T00:10:24;13.70;99.90
40952;DHT22;26682;51.660;19.338;2022-10-18T00:12:10;13.70;99.90
40952;DHT22;26682;51.660;19.338;2022-10-18T00:13:56;13.60;99.90
40952;DHT22;26682;51.660;19.338;2022-10-18T00:16:02;13.60;99.90
40952;DHT22;26682;51.660;19.338;2022-10-18T00:17:48;13.60;99.90
40952;DHT22;26682;51.660;19.338;2022-10-18T00:19:34;13.60;99.90
40952;DHT22;26682;51.660;19.338;2022-10-18T00:21:22;13.60;99.90
40952;DHT22;26682;51.660;19.338;2022-10-18T00:23:08;13.60;99.90
40952;DHT22;26682;51.660;19.338;2022-10-18T00:24:54;13.60;99.90
40952;DHT22;26682;51.660;19.338;2022-10-18T00:26:40;13.60;99.90
40952;DHT22;26682;51.660;19.338;2022-10-18T00:28:26;13.60;99.90
40952;DHT22;26682;51.660;19.338;2022-10-18T00:30:12;13.60;99.90
40952;DHT22;26682;51.660;19.338;2022-10-18T00:31:58;13.60;99.90
40952;DHT22;26682;51.660;19.338;2022-10-18T00:33:48;13.60;99.90
40952;DHT22;26682;51.660;19.338;2022-10-18T00:35:34;13.60;99.90
40952;DHT22;26682;51.660;19.338;2022-10-18T00:37:23;13.60;99.90
40952;DHT22;26682;51.660;19.338;2022-10-18T00:39:15;13.60;99.90
40952;DHT22;26682;51.660;19.338;2022-10-18T00:41:02;13.60;99.90
40952;DHT22;26682;51.660;19.338;2022-10-18T00:42:48;13.50;99.90
40952;DHT22;26682;51.660;19.338;2022-10-18T00:46:24;13.50;99.90
40952;DHT22;26682;51.660;19.338;2022-10-18T00:48:12;13.50;99.90
40952;DHT22;26682;51.660;19.338;2022-10-18T00:50:02;13.40;99.90
40952;DHT22;26682;51.660;19.338;2022-10-18T00:51:55;13.40;99.90
40952;DHT22;26682;51.660;19.338;2022-10-18T00:53:41;13.40;99.90
40952;DHT22;26682;51.660;19.338;2022-10-18T00:55:30;13.40;99.90
40952;DHT22;26682;51.660;19.338;2022-10-18T00:57:17;13.40;99.90
40952;DHT22;26682;51.660;19.338;2022-10-18T00:59:03;13.40;99.90
40952;DHT22;26682;51.660;19.338;2022-10-18T01:00:49;13.30;99.90
40952;DHT22;26682;51.660;19.338;2022-10-18T01:02:41;13.30;99.90
40952;DHT22;26682;51.660;19.338;2022-10-18T01:04:27;13.30;99.90
40952;DHT22;26682;51.660;19.338;2022-10-18T01:06:13;13.30;99.90
40952;DHT22;26682;51.660;19.338;2022-10-18T01:08:24;13.30;99.90
40952;DHT22;26682;51.660;19.338;2022-10-18T01:11:16;13.30;99.90
40952;DHT22;26682;51.660;19.338;2022-10-18T01:12:48;13.30;99.90
40952;DHT22;26682;51.660;19.338;2022-10-18T01:14:48;13.30;99.90
40952;DHT22;26682;51.660;19.338;2022-10-18T01:16:51;13.30;99.90
40952;DHT22;26682;51.660;19.338;2022-10-18T01:18:59;13.30;99.90
40952;DHT22;26682;51.660;19.338;2022-10-18T01:21:09;13.30;99.90
40952;DHT22;26682;51.660;19.338;2022-10-18T01:23:08;13.30;99.90
40952;DHT22;26682;51.660;19.338;2022-10-18T01:25:09;13.30;99.90
40952;DHT22;26682;51.660;19.338;2022-10-18T01:31:32;13.30;99.90
40952;DHT22;26682;51.660;19.338;2022-10-18T01:33:28;13.20;99.90
40952;DHT22;26682;51.660;19.338;2022-10-18T01:35:24;13.30;99.90
40952;DHT22;26682;51.660;19.338;2022-10-18T01:37:14;13.30;99.90
40952;DHT22;26682;51.660;19.338;2022-10-18T01:39:05;13.30;99.90
40952;DHT22;26682;51.660;19.338;2022-10-18T01:40:53;13.30;99.90
40952;DHT22;26682;51.660;19.338;2022-10-18T01:42:42;13.30;99.90
40952;DHT22;26682;51.660;19.338;2022-10-18T01:44:30;13.40;99.90
40952;DHT22;26682;51.660;19.338;2022-10-18T01:46:21;13.40;99.90
40952;DHT22;26682;51.660;19.338;2022-10-18T01:48:11;13.40;99.90
40952;DHT22;26682;51.660;19.338;2022-10-18T01:50:01;13.40;99.90
40952;DHT22;26682;51.660;19.338;2022-10-18T01:51:47;13.40;99.90
40952;DHT22;26682;51.660;19.338;2022-10-18T01:53:33;13.30;99.90
40952;DHT22;26682;51.660;19.338;2022-10-18T01:55:29;13.30;99.90
40952;DHT22;26682;51.660;19.338;2022-10-18T01:57:29;13.30;99.90
40952;DHT22;26682;51.660;19.338;2022-10-18T01:59:36;13.30;99.90
40952;DHT22;26682;51.660;19.338;2022-10-18T02:03:43;13.30;99.90
40952;DHT22;26682;51.660;19.338;2022-10-18T02:07:41;13.30;99.90
40952;DHT22;26682;51.660;19.338;2022-10-18T02:09:36;13.30;99.90
40952;DHT22;26682;51.660;19.338;2022-10-18T02:11:26;13.30;99.90
40952;DHT22;26682;51.660;19.338;2022-10-18T02:13:17;13.30;99.90
40952;DHT22;26682;51.660;19.338;2022-10-18T02:15:04;13.30;99.90
40952;DHT22;26682;51.660;19.338;2022-10-18T02:16:53;13.30;99.90
40952;DHT22;26682;51.660;19.338;2022-10-18T02:18:45;13.30;99.90
40952;DHT22;26682;51.660;19.338;2022-10-18T02:20:33;13.30;99.90
40952;DHT22;26682;51.660;19.338;2022-10-18T02:22:24;13.30;99.90
40952;DHT22;26682;51.660;19.338;2022-10-18T02:24:13;13.20;99.90
40952;DHT22;26682;51.660;19.338;2022-10-18T02:25:59;13.20;99.90
40952;DHT22;26682;51.660;19.338;2022-10-18T02:27:46;13.20;99.90
40952;DHT22;26682;51.660;19.338;2022-10-18T02:29:32;13.30;99.90
40952;DHT22;26682;51.660;19.338;2022-10-18T02:31:29;13.30;99.90
40952;DHT22;26682;51.660;19.338;2022-10-18T02:33:18;13.30;99.90
40952;DHT22;26682;51.660;19.338;2022-10-18T02:35:16;13.30;99.90
40952;DHT22;26682;51.660;19.338;2022-10-18T02:37:04;13.30;99.90
40952;DHT22;26682;51.660;19.338;2022-10-18T02:38:53;13.30;99.90
40952;DHT22;26682;51.660;19.338;2022-10-18T02:40:41;13.30;99.90
40952;DHT22;26682;51.660;19.338;2022-10-18T02:42:33;13.30;99.90
40952;DHT22;26682;51.660;19.338;2022-10-18T02:44:19;13.20;99.90
40952;DHT22;26682;51.660;19.338;2022-10-18T02:46:05;13.20;99.90
40952;DHT22;26682;51.660;19.338;2022-10-18T02:47:52;13.20;99.90
40952;DHT22;26682;51.660;19.338;2022-10-18T02:49:38;13.20;99.90
40952;DHT22;26682;51.660;19.338;2022-10-18T02:51:24;13.20;99.90
40952;DHT22;26682;51.660;19.338;2022-10-18T02:53:10;13.20;99.90
40952;DHT22;26682;51.660;19.338;2022-10-18T02:54:56;13.20;99.90
40952;DHT22;26682;51.660;19.338;2022-10-18T02:56:42;13.10;99.90
40952;DHT22;26682;51.660;19.338;2022-10-18T02:58:28;13.10;99.90
40952;DHT22;26682;51.660;19.338;2022-10-18T03:00:14;13.10;99.90
40952;DHT22;26682;51.660;19.338;2022-10-18T03:02:00;13.10;99.90
40952;DHT22;26682;51.660;19.338;2022-10-18T03:03:48;13.00;99.90
40952;DHT22;26682;51.660;19.338;2022-10-18T03:05:34;13.00;99.90
40952;DHT22;26682;51.660;19.338;2022-10-18T03:07:20;13.00;99.90
40952;DHT22;26682;51.660;19.338;2022-10-18T03:09:08;12.90;99.90
40952;DHT22;26682;51.660;19.338;2022-10-18T03:10:54;12.90;99.90
40952;DHT22;26682;51.660;19.338;2022-10-18T03:12:40;12.90;99.90
40952;DHT22;26682;51.660;19.338;2022-10-18T03:14:26;12.80;99.90
40952;DHT22;26682;51.660;19.338;2022-10-18T03:16:12;12.80;99.90
40952;DHT22;26682;51.660;19.338;2022-10-18T03:17:58;12.80;99.90
40952;DHT22;26682;51.660;19.338;2022-10-18T03:19:44;12.80;99.90
40952;DHT22;26682;51.660;19.338;2022-10-18T03:21:30;12.70;99.90
40952;DHT22;26682;51.660;19.338;2022-10-18T03:23:16;12.70;99.90
40952;DHT22;26682;51.660;19.338;2022-10-18T03:25:02;12.70;99.90
40952;DHT22;26682;51.660;19.338;2022-10-18T03:26:48;12.70;99.90
40952;DHT22;26682;51.660;19.338;2022-10-18T03:28:34;12.70;99.90
40952;DHT22;26682;51.660;19.338;2022-10-18T03:30:20;12.60;99.90
40952;DHT22;26682;51.660;19.338;2022-10-18T03:32:06;12.60;99.90
40952;DHT22;26682;51.660;19.338;2022-10-18T03:33:52;12.60;99.90
40952;DHT22;26682;51.660;19.338;2022-10-18T03:35:38;12.60;99.90
40952;DHT22;26682;51.660;19.338;2022-10-18T03:37:24;12.50;99.90
40952;DHT22;26682;51.660;19.338;2022-10-18T03:39:10;12.50;99.90
40952;DHT22;26682;51.660;19.338;2022-10-18T03:40:57;12.40;99.90
40952;DHT22;26682;51.660;19.338;2022-10-18T03:42:43;12.40;99.90
40952;DHT22;26682;51.660;19.338;2022-10-18T03:44:29;12.40;99.90
40952;DHT22;26682;51.660;19.338;2022-10-18T03:46:15;12.50;99.90
40952;DHT22;26682;51.660;19.338;2022-10-18T03:48:01;12.50;99.90
40952;DHT22;26682;51.660;19.338;2022-10-18T03:49:47;12.40;99.90
40952;DHT22;26682;51.660;19.338;2022-10-18T03:51:33;12.40;99.90
40952;DHT22;26682;51.660;19.338;2022-10-18T03:53:19;12.40;99.90
40952;DHT22;26682;51.660;19.338;2022-10-18T03:55:05;12.40;99.90
40952;DHT22;26682;51.660;19.338;2022-10-18T03:56:51;12.40;99.90
40952;DHT22;26682;51.660;19.338;2022-10-18T03:58:37;12.40;99.90
40952;DHT22;26682;51.660;19.338;2022-10-18T04:00:23;12.40;99.90
40952;DHT22;26682;51.660;19.338;2022-10-18T04:02:09;12.40;99.90
40952;DHT22;26682;51.660;19.338;2022-10-18T04:03:55;12.40;99.90
40952;DHT22;26682;51.660;19.338;2022-10-18T04:05:41;12.40;99.90
40952;DHT22;26682;51.660;19.338;2022-10-18T04:07:27;12.30;99.90
40952;DHT22;26682;51.660;19.338;2022-10-18T04:09:13;12.30;99.90
40952;DHT22;26682;51.660;19.338;2022-10-18T04:11:04;12.30;99.90
40952;DHT22;26682;51.660;19.338;2022-10-18T04:12:50;12.30;99.90
40952;DHT22;26682;51.660;19.338;2022-10-18T04:14:36;12.30;99.90
40952;DHT22;26682;51.660;19.338;2022-10-18T04:16:25;12.30;99.90
40952;DHT22;26682;51.660;19.338;2022-10-18T04:18:11;12.30;99.90
40952;DHT22;26682;51.660;19.338;2022-10-18T04:19:57;12.20;99.90
40952;DHT22;26682;51.660;19.338;2022-10-18T04:21:43;12.20;99.90
40952;DHT22;26682;51.660;19.338;2022-10-18T04:23:29;12.20;99.90
40952;DHT22;26682;51.660;19.338;2022-10-18T04:25:15;12.20;99.90
40952;DHT22;26682;51.660;19.338;2022-10-18T04:27:02;12.20;99.90
40952;DHT22;26682;51.660;19.338;2022-10-18T04:28:48;12.10;99.90
40952;DHT22;26682;51.660;19.338;2022-10-18T04:30:35;12.10;99.90
40952;DHT22;26682;51.660;19.338;2022-10-18T04:32:20;12.10;99.90
40952;DHT22;26682;51.660;19.338;2022-10-18T04:34:07;12.10;99.90
40952;DHT22;26682;51.660;19.338;2022-10-18T04:35:53;12.10;99.90
40952;DHT22;26682;51.660;19.338;2022-10-18T04:37:39;12.10;99.90
40952;DHT22;26682;51.660;19.338;2022-10-18T04:39:25;12.10;99.90
40952;DHT22;26682;51.660;19.338;2022-10-18T04:41:11;12.20;99.90
40952;DHT22;26682;51.660;19.338;2022-10-18T04:42:57;12.10;99.90
40952;DHT22;26682;51.660;19.338;2022-10-18T04:44:43;12.10;99.90
40952;DHT22;26682;51.660;19.338;2022-10-18T04:46:29;12.20;99.90
40952;DHT22;26682;51.660;19.338;2022-10-18T04:48:16;12.10;99.90
40952;DHT22;26682;51.660;19.338;2022-10-18T04:50:03;12.10;99.90
40952;DHT22;26682;51.660;19.338;2022-10-18T04:51:49;12.10;99.90
40952;DHT22;26682;51.660;19.338;2022-10-18T04:53:35;12.10;99.90
40952;DHT22;26682;51.660;19.338;2022-10-18T04:55:21;12.10;99.90
40952;DHT22;26682;51.660;19.338;2022-10-18T04:57:07;12.10;99.90
40952;DHT22;26682;51.660;19.338;2022-10-18T04:58:53;12.10;99.90
40952;DHT22;26682;51.660;19.338;2022-10-18T05:00:40;12.10;99.90
40952;DHT22;26682;51.660;19.338;2022-10-18T05:02:29;12.20;99.90
40952;DHT22;26682;51.660;19.338;2022-10-18T05:04:15;12.10;99.90
40952;DHT22;26682;51.660;19.338;2022-10-18T05:06:01;12.20;99.90
40952;DHT22;26682;51.660;19.338;2022-10-18T05:07:48;12.10;99.90
40952;DHT22;26682;51.660;19.338;2022-10-18T05:09:34;12.10;99.90
40952;DHT22;26682;51.660;19.338;2022-10-18T05:11:20;12.20;99.90
40952;DHT22;26682;51.660;19.338;2022-10-18T05:13:06;12.20;99.90
40952;DHT22;26682;51.660;19.338;2022-10-18T05:14:52;12.20;99.90
40952;DHT22;26682;51.660;19.338;2022-10-18T05:16:38;12.20;99.90
40952;DHT22;26682;51.660;19.338;2022-10-18T05:18:24;12.10;99.90
40952;DHT22;26682;51.660;19.338;2022-10-18T05:20:11;12.20;99.90
40952;DHT22;26682;51.660;19.338;2022-10-18T05:21:56;12.20;99.90
40952;DHT22;26682;51.660;19.338;2022-10-18T05:23:43;12.10;99.90
40952;DHT22;26682;51.660;19.338;2022-10-18T05:25:29;12.20;99.90
40952;DHT22;26682;51.660;19.338;2022-10-18T05:27:15;12.20;99.90
40952;DHT22;26682;51.660;19.338;2022-10-18T05:29:02;12.20;99.90
40952;DHT22;26682;51.660;19.338;2022-10-18T05:30:48;12.20;99.90
40952;DHT22;26682;51.660;19.338;2022-10-18T05:32:34;12.20;99.90
40952;DHT22;26682;51.660;19.338;2022-10-18T05:34:20;12.20;99.90
40952;DHT22;26682;51.660;19.338;2022-10-18T05:36:07;12.20;99.90
40952;DHT22;26682;51.660;19.338;2022-10-18T05:37:53;12.40;99.90
40952;DHT22;26682;51.660;19.338;2022-10-18T05:39:39;12.50;99.90
40952;DHT22;26682;51.660;19.338;2022-10-18T05:41:25;12.50;99.90
40952;DHT22;26682;51.660;19.338;2022-10-18T05:43:11;12.50;99.90
40952;DHT22;26682;51.660;19.338;2022-10-18T05:44:57;12.40;99.90
40952;DHT22;26682;51.660;19.338;2022-10-18T05:46:43;12.40;99.90
40952;DHT22;26682;51.660;19.338;2022-10-18T05:48:29;12.40;99.90
40952;DHT22;26682;51.660;19.338;2022-10-18T05:50:16;12.50;99.90
40952;DHT22;26682;51.660;19.338;2022-10-18T05:52:02;12.50;99.90
40952;DHT22;26682;51.660;19.338;2022-10-18T05:53:48;12.50;99.90
40952;DHT22;26682;51.660;19.338;2022-10-18T05:55:34;12.50;99.90
40952;DHT22;26682;51.660;19.338;2022-10-18T05:57:22;12.50;99.90
40952;DHT22;26682;51.660;19.338;2022-10-18T05:59:08;12.60;99.90
40952;DHT22;26682;51.660;19.338;2022-10-18T06:01:07;12.60;99.90
40952;DHT22;26682;51.660;19.338;2022-10-18T06:02:53;12.60;99.90
40952;DHT22;26682;51.660;19.338;2022-10-18T06:04:39;12.70;99.90
40952;DHT22;26682;51.660;19.338;2022-10-18T06:06:25;12.70;99.90
40952;DHT22;26682;51.660;19.338;2022-10-18T06:08:11;12.70;99.90
40952;DHT22;26682;51.660;19.338;2022-10-18T06:09:57;12.70;99.90
40952;DHT22;26682;51.660;19.338;2022-10-18T06:11:43;12.80;99.90
40952;DHT22;26682;51.660;19.338;2022-10-18T06:13:29;12.80;99.90
40952;DHT22;26682;51.660;19.338;2022-10-18T06:15:15;12.90;99.90
40952;DHT22;26682;51.660;19.338;2022-10-18T06:17:01;12.90;99.90
40952;DHT22;26682;51.660;19.338;2022-10-18T06:18:49;12.90;99.90
40952;DHT22;26682;51.660;19.338;2022-10-18T06:20:35;13.00;99.90
40952;DHT22;26682;51.660;19.338;2022-10-18T06:22:22;13.10;99.90
40952;DHT22;26682;51.660;19.338;2022-10-18T06:24:08;13.10;99.90
40952;DHT22;26682;51.660;19.338;2022-10-18T06:26:02;13.10;99.90
40952;DHT22;26682;51.660;19.338;2022-10-18T06:27:48;13.20;99.90
40952;DHT22;26682;51.660;19.338;2022-10-18T06:29:35;13.20;99.90
40952;DHT22;26682;51.660;19.338;2022-10-18T06:31:21;13.30;99.90
40952;DHT22;26682;51.660;19.338;2022-10-18T06:33:07;13.30;99.90
40952;DHT22;26682;51.660;19.338;2022-10-18T06:34:56;13.30;99.90
40952;DHT22;26682;51.660;19.338;2022-10-18T06:36:42;13.40;99.90
40952;DHT22;26682;51.660;19.338;2022-10-18T06:38:29;13.40;99.90
40952;DHT22;26682;51.660;19.338;2022-10-18T06:40:15;13.40;99.90
40952;DHT22;26682;51.660;19.338;2022-10-18T06:42:01;13.50;99.90
40952;DHT22;26682;51.660;19.338;2022-10-18T06:43:53;13.50;99.90
40952;DHT22;26682;51.660;19.338;2022-10-18T06:45:45;13.70;99.90
40952;DHT22;26682;51.660;19.338;2022-10-18T06:47:31;13.80;99.90
40952;DHT22;26682;51.660;19.338;2022-10-18T06:49:17;13.90;99.90
40952;DHT22;26682;51.660;19.338;2022-10-18T06:51:04;14.00;99.90
40952;DHT22;26682;51.660;19.338;2022-10-18T06:52:51;14.10;99.90
40952;DHT22;26682;51.660;19.338;2022-10-18T06:54:37;14.20;99.90
40952;DHT22;26682;51.660;19.338;2022-10-18T06:56:23;14.20;99.90
40952;DHT22;26682;51.660;19.338;2022-10-18T06:58:09;14.20;99.90
40952;DHT22;26682;51.660;19.338;2022-10-18T06:59:55;14.30;99.90
40952;DHT22;26682;51.660;19.338;2022-10-18T07:01:41;14.30;99.90
40952;DHT22;26682;51.660;19.338;2022-10-18T07:03:28;14.30;99.90
40952;DHT22;26682;51.660;19.338;2022-10-18T07:05:14;14.40;99.90
40952;DHT22;26682;51.660;19.338;2022-10-18T07:07:00;14.40;99.90
40952;DHT22;26682;51.660;19.338;2022-10-18T07:08:48;14.50;99.90
40952;DHT22;26682;51.660;19.338;2022-10-18T07:10:34;14.50;99.90
40952;DHT22;26682;51.660;19.338;2022-10-18T07:12:23;14.50;99.90
40952;DHT22;26682;51.660;19.338;2022-10-18T07:14:09;14.60;99.90
40952;DHT22;26682;51.660;19.338;2022-10-18T07:16:03;14.60;99.90
40952;DHT22;26682;51.660;19.338;2022-10-18T07:17:50;14.70;99.90
40952;DHT22;26682;51.660;19.338;2022-10-18T07:19:37;14.80;99.90
40952;DHT22;26682;51.660;19.338;2022-10-18T07:21:25;14.90;99.90
40952;DHT22;26682;51.660;19.338;2022-10-18T07:23:11;15.00;99.90
40952;DHT22;26682;51.660;19.338;2022-10-18T07:24:57;15.00;99.90
40952;DHT22;26682;51.660;19.338;2022-10-18T07:26:43;15.10;99.90
40952;DHT22;26682;51.660;19.338;2022-10-18T07:28:29;15.20;99.90
40952;DHT22;26682;51.660;19.338;2022-10-18T07:30:15;15.30;99.90
40952;DHT22;26682;51.660;19.338;2022-10-18T07:32:01;15.40;99.90
40952;DHT22;26682;51.660;19.338;2022-10-18T07:33:47;15.50;99.90
40952;DHT22;26682;51.660;19.338;2022-10-18T07:35:33;15.60;99.90
40952;DHT22;26682;51.660;19.338;2022-10-18T07:37:20;15.60;99.90
40952;DHT22;26682;51.660;19.338;2022-10-18T07:39:06;15.70;99.90
40952;DHT22;26682;51.660;19.338;2022-10-18T07:40:56;15.80;99.90
40952;DHT22;26682;51.660;19.338;2022-10-18T07:42:45;16.00;99.90
40952;DHT22;26682;51.660;19.338;2022-10-18T07:44:31;16.10;99.90
40952;DHT22;26682;51.660;19.338;2022-10-18T07:46:19;16.10;99.90
40952;DHT22;26682;51.660;19.338;2022-10-18T07:48:05;16.10;99.90
40952;DHT22;26682;51.660;19.338;2022-10-18T07:49:51;16.10;99.90
40952;DHT22;26682;51.660;19.338;2022-10-18T07:51:37;16.10;99.90
40952;DHT22;26682;51.660;19.338;2022-10-18T07:53:24;16.10;99.90
40952;DHT22;26682;51.660;19.338;2022-10-18T07:55:10;16.10;99.90
40952;DHT22;26682;51.660;19.338;2022-10-18T07:56:58;16.00;99.90
40952;DHT22;26682;51.660;19.338;2022-10-18T07:58:46;16.00;99.90
40952;DHT22;26682;51.660;19.338;2022-10-18T08:00:35;16.10;99.90
40952;DHT22;26682;51.660;19.338;2022-10-18T08:02:22;16.20;99.90
40952;DHT22;26682;51.660;19.338;2022-10-18T08:04:09;16.30;99.90
40952;DHT22;26682;51.660;19.338;2022-10-18T08:05:57;16.40;99.90
40952;DHT22;26682;51.660;19.338;2022-10-18T08:07:43;16.50;99.90
40952;DHT22;26682;51.660;19.338;2022-10-18T08:09:29;16.60;99.90
40952;DHT22;26682;51.660;19.338;2022-10-18T08:11:20;16.70;99.90
40952;DHT22;26682;51.660;19.338;2022-10-18T08:13:07;16.70;99.90
40952;DHT22;26682;51.660;19.338;2022-10-18T08:14:53;16.70;99.90
40952;DHT22;26682;51.660;19.338;2022-10-18T08:16:39;16.50;99.90
40952;DHT22;26682;51.660;19.338;2022-10-18T08:18:28;16.50;99.90
40952;DHT22;26682;51.660;19.338;2022-10-18T08:20:15;16.50;99.90
40952;DHT22;26682;51.660;19.338;2022-10-18T08:22:01;16.60;99.90
40952;DHT22;26682;51.660;19.338;2022-10-18T08:23:47;16.60;99.90
40952;DHT22;26682;51.660;19.338;2022-10-18T08:25:33;16.80;99.90
40952;DHT22;26682;51.660;19.338;2022-10-18T08:27:19;16.90;99.90
40952;DHT22;26682;51.660;19.338;2022-10-18T08:29:05;16.90;99.90
40952;DHT22;26682;51.660;19.338;2022-10-18T08:30:51;16.90;99.90
40952;DHT22;26682;51.660;19.338;2022-10-18T08:32:40;17.10;99.90
40952;DHT22;26682;51.660;19.338;2022-10-18T08:34:26;17.10;99.90
40952;DHT22;26682;51.660;19.338;2022-10-18T08:36:14;17.00;99.90
40952;DHT22;26682;51.660;19.338;2022-10-18T08:38:01;16.90;99.90
40952;DHT22;26682;51.660;19.338;2022-10-18T08:39:47;16.80;99.90
40952;DHT22;26682;51.660;19.338;2022-10-18T08:45:11;16.70;99.90
40952;DHT22;26682;51.660;19.338;2022-10-18T08:47:12;16.70;99.90
40952;DHT22;26682;51.660;19.338;2022-10-18T08:49:03;16.80;99.90
40952;DHT22;26682;51.660;19.338;2022-10-18T08:50:53;16.70;99.90
40952;DHT22;26682;51.660;19.338;2022-10-18T08:53:12;16.70;99.90
40952;DHT22;26682;51.660;19.338;2022-10-18T08:55:08;16.70;99.90
40952;DHT22;26682;51.660;19.338;2022-10-18T08:57:01;16.70;99.90
40952;DHT22;26682;51.660;19.338;2022-10-18T08:58:49;16.70;99.90
40952;DHT22;26682;51.660;19.338;2022-10-18T09:00:45;16.80;99.90
40952;DHT22;26682;51.660;19.338;2022-10-18T09:04:53;16.90;99.90
40952;DHT22;26682;51.660;19.338;2022-10-18T09:12:58;17.00;99.90
40952;DHT22;26682;51.660;19.338;2022-10-18T09:15:21;17.00;99.90
40952;DHT22;26682;51.660;19.338;2022-10-18T09:17:21;17.00;99.90
40952;DHT22;26682;51.660;19.338;2022-10-18T09:19:19;17.00;99.90
40952;DHT22;26682;51.660;19.338;2022-10-18T09:21:19;17.00;99.90
40952;DHT22;26682;51.660;19.338;2022-10-18T09:23:22;17.00;99.90
40952;DHT22;26682;51.660;19.338;2022-10-18T09:27:55;17.10;99.90
40952;DHT22;26682;51.660;19.338;2022-10-18T09:32:03;17.30;99.90
40952;DHT22;26682;51.660;19.338;2022-10-18T09:33:54;17.40;99.90
40952;DHT22;26682;51.660;19.338;2022-10-18T09:35:48;17.40;99.90
40952;DHT22;26682;51.660;19.338;2022-10-18T09:37:35;17.40;99.90
40952;DHT22;26682;51.660;19.338;2022-10-18T09:39:28;17.40;99.90
40952;DHT22;26682;51.660;19.338;2022-10-18T09:41:22;17.40;99.90
40952;DHT22;26682;51.660;19.338;2022-10-18T09:43:15;17.40;99.90
40952;DHT22;26682;51.660;19.338;2022-10-18T09:45:12;17.50;99.90
40952;DHT22;26682;51.660;19.338;2022-10-18T09:47:02;17.60;99.90
40952;DHT22;26682;51.660;19.338;2022-10-18T09:48:59;17.70;99.90
40952;DHT22;26682;51.660;19.338;2022-10-18T09:51:02;17.70;99.90
40952;DHT22;26682;51.660;19.338;2022-10-18T09:54:56;17.70;99.90
40952;DHT22;26682;51.660;19.338;2022-10-18T09:57:01;17.70;99.90
40952;DHT22;26682;51.660;19.338;2022-10-18T09:58:49;17.70;99.90
40952;DHT22;26682;51.660;19.338;2022-10-18T10:00:47;17.80;99.90
40952;DHT22;26682;51.660;19.338;2022-10-18T10:02:34;17.80;99.90
40952;DHT22;26682;51.660;19.338;2022-10-18T10:04:20;17.80;99.90
40952;DHT22;26682;51.660;19.338;2022-10-18T10:08:02;17.90;99.90
40952;DHT22;26682;51.660;19.338;2022-10-18T10:09:58;18.00;99.90
40952;DHT22;26682;51.660;19.338;2022-10-18T10:11:50;18.10;99.90
40952;DHT22;26682;51.660;19.338;2022-10-18T10:13:36;18.20;99.90
40952;DHT22;26682;51.660;19.338;2022-10-18T10:15:24;18.30;99.90
40952;DHT22;26682;51.660;19.338;2022-10-18T10:17:23;18.30;99.90
40952;DHT22;26682;51.660;19.338;2022-10-18T10:19:32;18.40;99.90
40952;DHT22;26682;51.660;19.338;2022-10-18T10:21:19;18.40;99.90
40952;DHT22;26682;51.660;19.338;2022-10-18T10:23:19;18.50;99.90
40952;DHT22;26682;51.660;19.338;2022-10-18T10:25:06;18.60;99.90
40952;DHT22;26682;51.660;19.338;2022-10-18T10:27:04;18.60;99.90
40952;DHT22;26682;51.660;19.338;2022-10-18T10:28:51;18.60;99.90
40952;DHT22;26682;51.660;19.338;2022-10-18T10:30:37;18.70;99.90
40952;DHT22;26682;51.660;19.338;2022-10-18T10:32:30;18.60;99.90
40952;DHT22;26682;51.660;19.338;2022-10-18T10:36:15;18.70;99.90
40952;DHT22;26682;51.660;19.338;2022-10-18T10:38:03;18.70;99.90
40952;DHT22;26682;51.660;19.338;2022-10-18T10:40:17;18.70;99.90
40952;DHT22;26682;51.660;19.338;2022-10-18T10:42:03;18.70;99.90
40952;DHT22;26682;51.660;19.338;2022-10-18T10:43:50;18.70;99.90
40952;DHT22;26682;51.660;19.338;2022-10-18T10:45:40;18.70;99.90
40952;DHT22;26682;51.660;19.338;2022-10-18T10:47:31;18.70;99.90
40952;DHT22;26682;51.660;19.338;2022-10-18T10:49:20;18.70;99.90
40952;DHT22;26682;51.660;19.338;2022-10-18T10:51:09;18.70;99.90
40952;DHT22;26682;51.660;19.338;2022-10-18T10:52:55;18.80;99.90
40952;DHT22;26682;51.660;19.338;2022-10-18T10:54:43;18.90;99.90
40952;DHT22;26682;51.660;19.338;2022-10-18T10:56:35;18.90;99.90
40952;DHT22;26682;51.660;19.338;2022-10-18T10:58:22;18.90;99.90
40952;DHT22;26682;51.660;19.338;2022-10-18T11:00:40;18.90;99.90
40952;DHT22;26682;51.660;19.338;2022-10-18T11:02:32;18.90;99.90
40952;DHT22;26682;51.660;19.338;2022-10-18T11:04:29;19.00;99.90
40952;DHT22;26682;51.660;19.338;2022-10-18T11:08:37;18.90;99.90
40952;DHT22;26682;51.660;19.338;2022-10-18T11:10:28;18.90;99.90
40952;DHT22;26682;51.660;19.338;2022-10-18T11:12:35;19.00;99.90
40952;DHT22;26682;51.660;19.338;2022-10-18T11:14:27;19.10;99.90
40952;DHT22;26682;51.660;19.338;2022-10-18T11:16:37;19.20;99.90
40952;DHT22;26682;51.660;19.338;2022-10-18T11:18:35;19.20;99.90
40952;DHT22;26682;51.660;19.338;2022-10-18T11:20:37;19.20;99.90
40952;DHT22;26682;51.660;19.338;2022-10-18T11:22:28;19.30;99.90
40952;DHT22;26682;51.660;19.338;2022-10-18T11:24:24;19.30;99.90
40952;DHT22;26682;51.660;19.338;2022-10-18T11:32:47;19.30;99.90
40952;DHT22;26682;51.660;19.338;2022-10-18T11:34:45;19.30;99.90
40952;DHT22;26682;51.660;19.338;2022-10-18T11:39:09;19.50;99.90
40952;DHT22;26682;51.660;19.338;2022-10-18T11:46:07;19.40;99.90
40952;DHT22;26682;51.660;19.338;2022-10-18T11:48:33;19.50;99.90
40952;DHT22;26682;51.660;19.338;2022-10-18T11:50:44;19.60;99.90
40952;DHT22;26682;51.660;19.338;2022-10-18T11:54:53;19.70;99.90
40952;DHT22;26682;51.660;19.338;2022-10-18T11:59:36;19.80;99.90
40952;DHT22;26682;51.660;19.338;2022-10-18T12:05:28;19.90;99.90
40952;DHT22;26682;51.660;19.338;2022-10-18T12:07:15;19.70;99.90
40952;DHT22;26682;51.660;19.338;2022-10-18T12:09:27;19.70;99.90
40952;DHT22;26682;51.660;19.338;2022-10-18T12:11:18;19.70;99.90
40952;DHT22;26682;51.660;19.338;2022-10-18T12:13:07;19.60;99.90
40952;DHT22;26682;51.660;19.338;2022-10-18T12:15:23;19.50;99.90
40952;DHT22;26682;51.660;19.338;2022-10-18T12:17:35;19.50;99.90
40952;DHT22;26682;51.660;19.338;2022-10-18T12:19:25;19.50;99.90
40952;DHT22;26682;51.660;19.338;2022-10-18T12:21:13;19.50;99.90